Opelika, Alabama
Current Conditions -  °F | °C
As of 2:15 PM on Saturday 25 Oct 2014 (Local Time) from KAUO Reporting Station
Clear Clear  
Wind Chill: 73°   Ceiling: Unl
Heat Index: 73°   Visibility: 10mi
Dew Point: 48°   Wind: 8mph
Humidity: 41%   Direction: 330°NNW
Pressure: 30.07"   Gusts: NA
Location:  32.65°N, 85.38°W
Report Text: KAUO 251915Z AUTO 33007KT 10SM CLR 23/09 A3007 RMK AO1
Loading
Personal Weather Stations






























Interactive Weather Map New forecast layout! Learn more

10-Day Weather Forecast

Advertisements
Track Severe Weather on mobile